Time;durP1;ratioP1;P1;durP2;ratioP2;P2;SDS_P1;SDS_P2;PMS_P1;PMS_P2;Temp;Humidity;BMP_temperature;BMP_pressure;BME280_temperature;BME280_humidity;BME280_pressure;Samples;Min_cycle;Max_cycle;Signal;HPM_P1;HPM_P2
2021/03/14 00:00:53;;;;;;;5.07;0.80;;;6.60;99.90;;;;;;4880682;29;20079;-70
2021/03/14 00:03:21;;;;;;;3.42;0.50;;;6.60;99.90;;;;;;4898032;29;20041;-70
2021/03/14 00:05:48;;;;;;;2.00;0.60;;;6.50;99.90;;;;;;4897924;29;20100;-71
2021/03/14 00:08:16;;;;;;;4.13;0.73;;;6.50;99.90;;;;;;4896543;29;20061;-70
2021/03/14 00:10:45;;;;;;;2.85;0.40;;;6.50;99.90;;;;;;4896809;29;20051;-71
2021/03/14 00:13:13;;;;;;;3.60;1.88;;;6.40;99.90;;;;;;4880722;29;20054;-71
2021/03/14 00:15:38;;;;;;;2.47;0.80;;;6.40;99.90;;;;;;4896907;29;20039;-71
2021/03/14 00:18:05;;;;;;;4.20;0.70;;;6.50;99.90;;;;;;4880709;29;20407;-71
2021/03/14 00:20:31;;;;;;;3.15;1.17;;;6.50;99.90;;;;;;4896827;29;20111;-71
2021/03/14 00:22:56;;;;;;;3.47;0.50;;;6.40;99.90;;;;;;4897316;29;20115;-70
2021/03/14 00:25:22;;;;;;;3.83;0.77;;;6.20;99.90;;;;;;4896579;29;20037;-71
2021/03/14 00:27:48;;;;;;;2.53;0.65;;;6.20;99.90;;;;;;4879978;29;20399;-70
2021/03/14 00:30:15;;;;;;;3.03;0.55;;;6.20;99.90;;;;;;4880338;29;20076;-70
2021/03/14 00:32:43;;;;;;;3.95;0.75;;;6.10;99.90;;;;;;4896469;29;20033;-69
2021/03/14 00:35:11;;;;;;;1.90;0.90;;;5.90;99.90;;;;;;4896960;29;20486;-69
2021/03/14 00:37:37;;;;;;;2.65;0.60;;;6.00;99.90;;;;;;4896464;29;20413;-71
2021/03/14 00:40:05;;;;;;;5.93;0.73;;;6.00;99.90;;;;;;4896778;29;20032;-71
2021/03/14 00:42:31;;;;;;;6.88;1.02;;;5.90;99.90;;;;;;4879227;29;20032;-71
2021/03/14 00:44:57;;;;;;;4.47;0.80;;;6.00;99.90;;;;;;4896888;29;20059;-70
2021/03/14 00:47:23;;;;;;;5.13;0.90;;;6.00;99.90;;;;;;4896623;29;20213;-71
2021/03/14 00:49:48;;;;;;;4.60;1.05;;;6.10;99.90;;;;;;4896912;29;20123;-71
2021/03/14 00:52:14;;;;;;;3.15;0.80;;;6.10;99.90;;;;;;4896809;29;20115;-70
2021/03/14 00:54:40;;;;;;;3.33;1.40;;;6.00;99.90;;;;;;4896088;29;20028;-70
2021/03/14 00:57:06;;;;;;;4.00;0.75;;;6.10;99.90;;;;;;4879434;29;20035;-70
2021/03/14 00:59:32;;;;;;;3.92;0.65;;;6.10;99.90;;;;;;4895805;29;20076;-71
2021/03/14 01:01:58;;;;;;;2.45;0.60;;;6.10;99.90;;;;;;4879600;29;20475;-70
2021/03/14 01:04:24;;;;;;;6.15;0.77;;;6.10;99.90;;;;;;4896481;29;20430;-72
2021/03/14 01:06:50;;;;;;;3.55;0.80;;;5.90;99.90;;;;;;4896602;29;20121;-70
2021/03/14 01:09:15;;;;;;;1.83;0.65;;;6.00;99.90;;;;;;4896596;29;20056;-70
2021/03/14 01:11:41;;;;;;;5.10;1.05;;;5.90;99.90;;;;;;4895562;29;20406;-71
2021/03/14 01:14:07;;;;;;;2.95;0.82;;;5.90;99.90;;;;;;4879252;29;20033;-70
2021/03/14 01:16:32;;;;;;;4.47;0.90;;;5.90;99.90;;;;;;4895439;29;20029;-71
2021/03/14 01:18:58;;;;;;;5.90;0.63;;;5.90;99.90;;;;;;4896283;29;20048;-68
2021/03/14 01:21:25;;;;;;;3.08;0.75;;;5.80;99.90;;;;;;4896275;29;20514;-69
2021/03/14 01:23:50;;;;;;;8.13;1.85;;;5.70;99.90;;;;;;4879420;29;20124;-69
2021/03/14 01:26:16;;;;;;;6.82;2.53;;;5.70;99.90;;;;;;4879289;29;20127;-69
2021/03/14 01:28:42;;;;;;;3.00;1.00;;;5.70;99.90;;;;;;4895251;29;20036;-70
2021/03/14 01:31:08;;;;;;;1.85;0.50;;;5.80;99.90;;;;;;4879482;29;20143;-70
2021/03/14 01:33:34;;;;;;;2.08;0.50;;;5.70;99.90;;;;;;4878910;29;20024;-70
2021/03/14 01:36:00;;;;;;;6.22;0.77;;;5.90;99.90;;;;;;4895913;29;20359;-69
2021/03/14 01:38:26;;;;;;;7.13;1.33;;;5.90;99.90;;;;;;4879453;29;20062;-70
2021/03/14 01:40:51;;;;;;;3.00;0.68;;;5.80;99.90;;;;;;4879577;29;20032;-71
2021/03/14 01:43:17;;;;;;;4.30;1.05;;;5.90;99.90;;;;;;4878889;29;20546;-70
2021/03/14 01:45:43;;;;;;;5.10;0.90;;;5.90;99.90;;;;;;4878692;29;20470;-70
2021/03/14 01:48:16;;;;;;;3.85;0.93;;;6.00;99.90;;;;;;4879444;29;20029;-71
2021/03/14 01:50:42;;;;;;;5.00;0.68;;;6.00;99.90;;;;;;4878875;29;20119;-70
2021/03/14 01:53:08;;;;;;;4.03;1.08;;;6.00;99.90;;;;;;4879186;29;20487;-69
2021/03/14 01:55:33;;;;;;;5.80;1.58;;;6.10;99.90;;;;;;4895893;29;20116;-69
2021/03/14 01:57:59;;;;;;;3.13;1.15;;;6.00;99.90;;;;;;4879315;29;20358;-70
2021/03/14 02:00:26;;;;;;;7.88;1.73;;;6.10;99.90;;;;;;4879200;29;20478;-70
2021/03/14 02:02:53;;;;;;;3.95;1.20;;;6.10;99.90;;;;;;4895628;29;20501;-70
2021/03/14 02:05:20;;;;;;;3.00;0.70;;;6.10;99.90;;;;;;4895658;29;20182;-70
2021/03/14 02:07:49;;;;;;;6.72;1.23;;;6.10;99.90;;;;;;4877949;29;20067;-69
2021/03/14 02:10:19;;;;;;;2.85;1.20;;;6.20;99.90;;;;;;4879444;29;20033;-70
2021/03/14 02:12:57;;;;;;;2.72;0.75;;;6.20;99.90;;;;;;4878360;29;20028;-70
2021/03/14 02:15:24;;;;;;;2.63;1.00;;;6.20;99.90;;;;;;4895757;29;20047;-69
2021/03/14 02:17:51;;;;;;;3.78;1.20;;;6.20;99.90;;;;;;4894931;29;20033;-70
2021/03/14 02:20:31;;;;;;;7.35;1.20;;;6.30;99.90;;;;;;4878816;29;20043;-69
2021/03/14 02:23:04;;;;;;;4.47;0.95;;;6.20;99.90;;;;;;4878895;29;20395;-69
2021/03/14 02:25:43;;;;;;;11.40;1.23;;;6.20;99.90;;;;;;4895160;29;20033;-69
2021/03/14 02:28:11;;;;;;;3.92;1.20;;;6.20;99.90;;;;;;4878856;29;20039;-69
2021/03/14 02:30:36;;;;;;;6.20;1.00;;;6.20;99.90;;;;;;4878367;29;20092;-70
2021/03/14 02:33:03;;;;;;;6.30;1.35;;;6.20;99.90;;;;;;4899398;29;20115;-70
2021/03/14 02:35:30;;;;;;;6.07;1.10;;;6.20;99.90;;;;;;4899270;29;20083;-73
2021/03/14 02:37:57;;;;;;;3.83;1.02;;;6.20;99.90;;;;;;4882519;29;20080;-70
2021/03/14 02:40:23;;;;;;;3.08;1.17;;;6.20;99.90;;;;;;4882428;29;20055;-70
2021/03/14 02:42:50;;;;;;;2.88;1.38;;;6.20;99.90;;;;;;4898746;29;20446;-70
2021/03/14 02:45:17;;;;;;;9.07;1.52;;;6.10;99.90;;;;;;4882313;29;20028;-70
2021/03/14 02:47:44;;;;;;;2.00;1.08;;;6.00;99.90;;;;;;4881793;29;20033;-70
2021/03/14 02:50:16;;;;;;;4.70;1.23;;;6.10;99.90;;;;;;4899048;29;20029;-70
2021/03/14 02:52:43;;;;;;;6.50;1.00;;;6.00;99.90;;;;;;4898651;29;20446;-70
2021/03/14 02:55:11;;;;;;;1.40;0.75;;;6.00;99.90;;;;;;4882122;29;20028;-70
2021/03/14 02:57:39;;;;;;;3.08;1.30;;;6.00;99.90;;;;;;4881471;29;20039;-71
2021/03/14 03:00:08;;;;;;;4.50;1.38;;;5.90;99.90;;;;;;4882140;29;20083;-70
2021/03/14 03:02:34;;;;;;;5.40;0.82;;;5.80;99.90;;;;;;4880797;29;20033;-71
2021/03/14 03:05:00;;;;;;;6.88;1.05;;;5.90;99.90;;;;;;4898733;29;20051;-70
2021/03/14 03:07:27;;;;;;;4.03;0.95;;;6.00;99.90;;;;;;4898847;29;20437;-70
2021/03/14 03:09:53;;;;;;;5.43;1.17;;;6.00;99.90;;;;;;4897765;29;20060;-70
2021/03/14 03:12:23;;;;;;;6.78;1.42;;;6.00;99.90;;;;;;4881698;29;20462;-70
2021/03/14 03:14:50;;;;;;;5.03;2.40;;;5.90;99.90;;;;;;4880878;29;20025;-69
2021/03/14 03:17:17;;;;;;;6.30;2.17;;;5.90;99.90;;;;;;4898311;29;20033;-70
2021/03/14 03:19:43;;;;;;;3.55;1.77;;;5.90;99.90;;;;;;4881024;29;20032;-70
2021/03/14 03:22:10;;;;;;;4.10;1.65;;;6.00;99.90;;;;;;4898202;29;20088;-70
2021/03/14 03:24:36;;;;;;;4.05;1.38;;;6.00;99.90;;;;;;4898043;29;20071;-70
2021/03/14 03:27:01;;;;;;;3.00;1.05;;;5.90;99.90;;;;;;4881442;29;20036;-70
2021/03/14 03:29:27;;;;;;;5.20;1.40;;;6.00;99.90;;;;;;4881284;29;20438;-70
2021/03/14 03:31:54;;;;;;;4.45;0.93;;;6.00;99.90;;;;;;4880591;29;20045;-70
2021/03/14 03:34:19;;;;;;;2.65;1.23;;;6.00;99.90;;;;;;4881174;29;20028;-70
2021/03/14 03:36:45;;;;;;;4.97;0.90;;;6.00;99.90;;;;;;4880552;29;20439;-70
2021/03/14 03:39:12;;;;;;;3.80;1.65;;;5.90;99.90;;;;;;4881170;29;20439;-70
2021/03/14 03:42:11;;;;;;;4.28;2.40;;;5.90;99.90;;;;;;4897578;29;20033;-70
2021/03/14 03:44:39;;;;;;;3.03;0.85;;;6.00;99.90;;;;;;4896624;29;20149;-69
2021/03/14 03:47:08;;;;;;;5.40;2.22;;;6.00;99.90;;;;;;4897964;29;20080;-70
2021/03/14 03:49:37;;;;;;;5.68;2.08;;;6.00;99.90;;;;;;4880390;29;20426;-72
2021/03/14 03:52:03;;;;;;;7.57;1.92;;;5.90;99.90;;;;;;4897653;29;20491;-71
2021/03/14 03:54:31;;;;;;;7.13;1.13;;;5.80;99.90;;;;;;4897941;29;20035;-70
2021/03/14 03:56:58;;;;;;;3.90;1.08;;;5.90;99.90;;;;;;4896977;29;20067;-70
2021/03/14 03:59:25;;;;;;;3.67;1.13;;;6.00;99.90;;;;;;4880772;29;20041;-70
2021/03/14 04:01:52;;;;;;;3.03;0.90;;;5.90;99.90;;;;;;4880014;29;20044;-70
2021/03/14 04:04:20;;;;;;;3.70;0.88;;;5.80;99.90;;;;;;4897638;29;20025;-69
2021/03/14 04:06:50;;;;;;;3.63;0.65;;;5.80;99.90;;;;;;4896725;29;20470;-69
2021/03/14 04:09:17;;;;;;;3.35;0.98;;;5.80;99.90;;;;;;4880199;29;20063;-69
2021/03/14 04:11:43;;;;;;;5.28;1.23;;;5.80;99.90;;;;;;4879874;29;20168;-70
2021/03/14 04:14:10;;;;;;;4.18;0.77;;;5.80;99.90;;;;;;4880153;29;20033;-69
2021/03/14 04:16:38;;;;;;;2.75;1.20;;;5.90;99.90;;;;;;4896490;29;20033;-70
2021/03/14 04:19:07;;;;;;;3.65;0.80;;;5.90;99.90;;;;;;4880769;29;20028;-71
2021/03/14 04:21:34;;;;;;;5.00;1.00;;;5.90;99.90;;;;;;4880551;29;20375;-70
2021/03/14 04:24:02;;;;;;;4.18;0.70;;;5.90;99.90;;;;;;4896576;29;20056;-72
2021/03/14 04:26:31;;;;;;;3.65;0.90;;;5.80;99.90;;;;;;4897344;29;20064;-69
2021/03/14 04:28:58;;;;;;;3.03;1.00;;;5.90;99.90;;;;;;4879770;29;20360;-70
2021/03/14 04:31:25;;;;;;;4.13;1.02;;;5.80;99.90;;;;;;4879975;29;20032;-70
2021/03/14 04:33:52;;;;;;;3.22;0.85;;;5.90;99.90;;;;;;4879298;29;20435;-69
2021/03/14 04:36:20;;;;;;;2.20;0.75;;;5.80;99.90;;;;;;4896797;29;20029;-70
2021/03/14 04:38:46;;;;;;;3.45;0.63;;;5.80;99.90;;;;;;4879304;29;20125;-71
2021/03/14 04:41:13;;;;;;;1.77;0.63;;;5.70;99.90;;;;;;4879964;29;20123;-71
2021/03/14 04:43:41;;;;;;;4.10;2.28;;;5.80;99.90;;;;;;4896026;29;20033;-71
2021/03/14 04:46:07;;;;;;;2.78;1.20;;;5.80;99.90;;;;;;4879712;29;20036;-70
2021/03/14 04:48:33;;;;;;;3.97;1.23;;;5.90;99.90;;;;;;4896561;29;20364;-70
2021/03/14 04:50:58;;;;;;;2.53;0.88;;;5.90;99.90;;;;;;4896539;29;20093;-70
2021/03/14 04:53:27;;;;;;;2.13;0.65;;;5.90;99.90;;;;;;4879826;29;20032;-70
2021/03/14 04:55:54;;;;;;;2.65;0.82;;;5.90;99.90;;;;;;4878827;29;20032;-70
2021/03/14 04:58:23;;;;;;;3.92;1.10;;;6.00;99.90;;;;;;4896770;29;20079;-70
2021/03/14 05:00:49;;;;;;;2.13;1.30;;;6.00;99.90;;;;;;4879098;29;20443;-71
2021/03/14 05:03:19;;;;;;;2.78;1.35;;;6.00;99.90;;;;;;4879627;29;20128;-70
2021/03/14 05:05:46;;;;;;;3.00;0.82;;;6.00;99.90;;;;;;4879099;29;20085;-71
2021/03/14 05:08:17;;;;;;;2.38;1.27;;;6.00;99.90;;;;;;4879502;29;20084;-70
2021/03/14 05:10:44;;;;;;;1.50;0.52;;;6.00;99.90;;;;;;4896100;29;20056;-71
2021/03/14 05:13:11;;;;;;;2.40;0.70;;;6.00;99.90;;;;;;4896624;29;20440;-71
2021/03/14 05:15:38;;;;;;;1.40;0.47;;;5.90;99.90;;;;;;4879508;29;20474;-71
2021/03/14 05:18:08;;;;;;;3.75;0.60;;;5.90;99.90;;;;;;4879299;29;20037;-70
2021/03/14 05:20:35;;;;;;;2.40;0.50;;;5.80;99.90;;;;;;4896323;29;20040;-70
2021/03/14 05:23:01;;;;;;;2.60;0.60;;;5.70;99.90;;;;;;4878802;29;20084;-70
2021/03/14 05:25:27;;;;;;;2.65;1.02;;;5.80;99.90;;;;;;4896309;29;20312;-70
2021/03/14 05:27:54;;;;;;;5.13;0.57;;;5.80;99.90;;;;;;4879018;29;20032;-71
2021/03/14 05:30:25;;;;;;;3.00;0.50;;;5.80;99.90;;;;;;4879326;29;20024;-71
2021/03/14 05:32:55;;;;;;;2.50;0.40;;;5.80;99.90;;;;;;4878521;29;20048;-71
2021/03/14 05:35:22;;;;;;;3.10;0.65;;;5.70;99.90;;;;;;4895978;29;20033;-71
2021/03/14 05:37:49;;;;;;;1.77;0.38;;;5.70;99.90;;;;;;4878524;29;20139;-71
2021/03/14 05:40:17;;;;;;;4.03;0.45;;;5.70;99.90;;;;;;4879073;29;20036;-70
2021/03/14 05:42:43;;;;;;;1.40;0.38;;;5.60;99.90;;;;;;4895096;29;20046;-71
2021/03/14 05:45:10;;;;;;;2.15;0.40;;;5.60;99.90;;;;;;4895720;29;20107;-71
2021/03/14 05:47:40;;;;;;;5.65;0.55;;;5.60;99.90;;;;;;4878960;29;20032;-71
2021/03/14 05:50:14;;;;;;;1.05;0.28;;;5.50;99.90;;;;;;4878623;29;20467;-71
2021/03/14 05:52:41;;;;;;;2.50;0.40;;;5.40;99.90;;;;;;4895973;29;20036;-71
2021/03/14 05:55:16;;;;;;;3.50;1.00;;;5.40;99.90;;;;;;4878803;29;20055;-69
2021/03/14 05:57:47;;;;;;;2.25;0.55;;;5.40;99.90;;;;;;4878214;29;20051;-71
2021/03/14 06:00:21;;;;;;;2.33;0.60;;;5.40;99.90;;;;;;4878795;29;20029;-71
2021/03/14 06:02:47;;;;;;;1.00;0.30;;;5.40;99.90;;;;;;4878179;29;20037;-71
2021/03/14 06:05:14;;;;;;;2.03;0.40;;;5.40;99.90;;;;;;4879003;29;20490;-70
2021/03/14 06:07:40;;;;;;;0.80;0.40;;;5.40;99.90;;;;;;4881435;29;20040;-69
2021/03/14 06:10:07;;;;;;;2.42;0.50;;;5.50;99.90;;;;;;4899047;29;20541;-70
2021/03/14 06:12:32;;;;;;;1.92;0.98;;;5.50;99.90;;;;;;4899536;29;20025;-70
2021/03/14 06:14:59;;;;;;;1.50;0.63;;;5.50;99.90;;;;;;4882045;29;20063;-70
2021/03/14 06:17:29;;;;;;;1.33;0.55;;;5.50;99.90;;;;;;4882470;29;20028;-70
2021/03/14 06:19:55;;;;;;;1.20;0.57;;;5.60;99.90;;;;;;4882069;29;20159;-71
2021/03/14 06:22:23;;;;;;;2.08;0.93;;;5.50;99.90;;;;;;4899353;29;20040;-70
2021/03/14 06:24:50;;;;;;;2.65;0.90;;;5.50;99.90;;;;;;4881938;29;20057;-70
2021/03/14 06:27:51;;;;;;;1.98;1.08;;;5.50;99.90;;;;;;4899465;29;20084;-70
2021/03/14 06:30:18;;;;;;;1.55;0.90;;;5.60;99.90;;;;;;4899416;29;20032;-69
2021/03/14 06:33:00;;;;;;;2.25;0.70;;;5.60;99.90;;;;;;4882217;29;20037;-71
2021/03/14 06:35:35;;;;;;;2.80;0.77;;;5.60;99.90;;;;;;4882557;29;20036;-70
2021/03/14 06:38:27;;;;;;;1.67;1.05;;;5.50;99.90;;;;;;4899053;29;20107;-70
2021/03/14 06:41:11;;;;;;;3.55;0.88;;;5.50;99.90;;;;;;4881637;29;20037;-70
2021/03/14 06:43:56;;;;;;;1.55;1.00;;;5.50;99.90;;;;;;4899144;29;20096;-70
2021/03/14 06:46:28;;;;;;;3.38;1.15;;;5.70;99.90;;;;;;4898961;29;20063;-70
2021/03/14 06:49:06;;;;;;;6.40;1.48;;;5.60;99.90;;;;;;4898186;29;20033;-70
2021/03/14 06:51:34;;;;;;;1.55;0.98;;;5.70;99.90;;;;;;4882038;29;20040;-71
2021/03/14 06:54:23;;;;;;;1.55;1.10;;;5.70;99.90;;;;;;4898244;29;20036;-70
2021/03/14 06:57:13;;;;;;;3.25;0.93;;;5.70;99.90;;;;;;4894999;29;20045;-71
2021/03/14 06:59:41;;;;;;;2.67;0.90;;;5.60;99.90;;;;;;4881939;29;20032;-70
2021/03/14 07:02:09;;;;;;;4.60;1.17;;;5.60;99.90;;;;;;4881326;29;20048;-70
2021/03/14 07:04:51;;;;;;;3.85;1.73;;;5.80;99.90;;;;;;4881956;29;20415;-70
2021/03/14 07:07:22;;;;;;;3.88;1.63;;;5.90;99.90;;;;;;4898923;29;20500;-69
2021/03/14 07:09:54;;;;;;;1.85;1.05;;;6.00;99.90;;;;;;4881182;29;20053;-67
2021/03/14 07:12:23;;;;;;;2.35;1.02;;;6.10;99.90;;;;;;4898613;29;20418;-68
2021/03/14 07:14:49;;;;;;;2.70;1.00;;;6.30;99.90;;;;;;4881228;29;20084;-70
2021/03/14 07:17:32;;;;;;;4.30;0.88;;;6.40;99.90;;;;;;4881328;29;20137;-71
2021/03/14 07:20:25;;;;;;;5.35;1.10;;;6.40;99.90;;;;;;4898002;29;20028;-69
2021/03/14 07:23:07;;;;;;;1.02;0.70;;;6.40;99.90;;;;;;4879670;29;20407;-69
2021/03/14 07:25:35;;;;;;;6.07;1.63;;;6.80;99.90;;;;;;4881498;29;20024;-69
2021/03/14 07:28:01;;;;;;;4.38;1.25;;;7.10;99.90;;;;;;4880779;29;20131;-70
2021/03/14 07:30:29;;;;;;;7.75;1.77;;;7.20;99.90;;;;;;4881133;29;20123;-69
2021/03/14 07:32:55;;;;;;;1.55;0.75;;;7.30;99.90;;;;;;4897665;29;20036;-68
2021/03/14 07:35:22;;;;;;;3.53;0.90;;;7.30;99.90;;;;;;4881029;29;20359;-69
2021/03/14 07:37:53;;;;;;;1.92;0.88;;;7.30;99.90;;;;;;4880761;29;20088;-70
2021/03/14 07:40:22;;;;;;;1.80;0.95;;;7.60;99.90;;;;;;4881130;29;20144;-69
2021/03/14 07:42:48;;;;;;;2.28;1.13;;;7.70;99.90;;;;;;4880461;29;20442;-71
2021/03/14 07:45:17;;;;;;;3.03;1.13;;;7.50;99.90;;;;;;4897875;29;20052;-69
2021/03/14 07:47:44;;;;;;;4.38;1.67;;;7.70;99.90;;;;;;4880876;29;20029;-69
2021/03/14 07:50:15;;;;;;;4.88;0.95;;;8.10;99.90;;;;;;4880358;29;20088;-69
2021/03/14 07:52:41;;;;;;;5.93;1.02;;;8.20;99.90;;;;;;4897456;29;20059;-69
2021/03/14 07:55:34;;;;;;;3.13;0.77;;;8.30;99.90;;;;;;4879902;29;20036;-69
2021/03/14 07:58:00;;;;;;;2.67;0.90;;;8.40;99.90;;;;;;4878832;29;20036;-69
2021/03/14 08:00:34;;;;;;;6.85;1.23;;;8.20;99.90;;;;;;4880678;29;20119;-70
2021/03/14 08:03:07;;;;;;;2.55;1.02;;;8.10;99.90;;;;;;4896849;29;20044;-70
2021/03/14 08:05:42;;;;;;;4.15;0.77;;;8.00;99.90;;;;;;4897710;29;20028;-70
2021/03/14 08:08:10;;;;;;;1.95;0.80;;;8.30;99.90;;;;;;4897074;29;20060;-70
2021/03/14 08:10:43;;;;;;;4.50;0.90;;;8.20;99.90;;;;;;4897272;29;20107;-69
2021/03/14 08:13:31;;;;;;;4.20;1.30;;;8.40;99.90;;;;;;4879937;29;20427;-70
2021/03/14 08:16:01;;;;;;;6.28;0.80;;;8.60;99.90;;;;;;4878672;29;20491;-69
2021/03/14 08:18:42;;;;;;;3.13;1.00;;;8.80;99.90;;;;;;4897745;29;20374;-70
2021/03/14 08:21:20;;;;;;;3.30;0.80;;;9.10;99.70;;;;;;4879964;29;20039;-70
2021/03/14 08:23:48;;;;;;;3.30;1.27;;;9.50;99.20;;;;;;4880266;29;20044;-69
2021/03/14 08:26:29;;;;;;;5.80;0.95;;;9.40;98.00;;;;;;4879334;29;20029;-70
2021/03/14 08:29:06;;;;;;;5.18;1.30;;;9.30;98.20;;;;;;4895710;29;20475;-69
2021/03/14 08:31:44;;;;;;;3.97;0.93;;;9.30;97.80;;;;;;4897231;29;20033;-70
2021/03/14 08:34:18;;;;;;;6.22;1.10;;;9.70;97.10;;;;;;4879868;29;20477;-70
2021/03/14 08:36:44;;;;;;;4.25;0.75;;;9.70;97.30;;;;;;4896930;29;20044;-69
2021/03/14 08:39:22;;;;;;;4.63;1.05;;;9.40;96.50;;;;;;4895978;29;20032;-69
2021/03/14 08:41:57;;;;;;;4.47;0.70;;;9.10;97.00;;;;;;4897091;29;20072;-69
2021/03/14 08:44:41;;;;;;;7.50;0.80;;;8.60;97.20;;;;;;4880295;29;20340;-69
2021/03/14 08:47:08;;;;;;;3.78;1.00;;;8.50;98.00;;;;;;4879557;29;20028;-68
2021/03/14 08:49:36;;;;;;;2.38;0.88;;;8.20;98.10;;;;;;4879733;29;20064;-69
2021/03/14 08:52:03;;;;;;;3.40;1.25;;;8.20;98.40;;;;;;4896013;29;20096;-69
2021/03/14 08:54:32;;;;;;;2.58;0.85;;;8.40;98.40;;;;;;4879685;29;20025;-69
2021/03/14 08:57:01;;;;;;;2.22;0.70;;;8.90;98.00;;;;;;4895938;29;20081;-70
2021/03/14 08:59:27;;;;;;;3.17;1.52;;;8.80;97.20;;;;;;4879725;29;20025;-71
2021/03/14 09:01:58;;;;;;;4.38;0.77;;;8.90;97.20;;;;;;4879123;29;20147;-69
2021/03/14 09:04:33;;;;;;;2.80;0.95;;;9.40;96.90;;;;;;4880049;29;20024;-68
2021/03/14 09:07:09;;;;;;;2.45;0.80;;;9.20;96.60;;;;;;4879045;29;20041;-70
2021/03/14 09:09:36;;;;;;;3.70;0.98;;;9.00;97.30;;;;;;4879019;29;20052;-69
2021/03/14 09:12:11;;;;;;;4.22;1.48;;;8.90;97.60;;;;;;4895725;29;20032;-68
2021/03/14 09:14:37;;;;;;;5.45;1.13;;;8.80;97.70;;;;;;4879509;29;20092;-69
2021/03/14 09:17:12;;;;;;;3.85;1.35;;;8.70;98.20;;;;;;4895928;29;20039;-70
2021/03/14 09:19:48;;;;;;;3.45;0.93;;;9.20;97.70;;;;;;4879457;29;20055;-69
2021/03/14 09:22:13;;;;;;;5.95;1.13;;;9.20;97.80;;;;;;4879007;29;20269;-69
2021/03/14 09:24:47;;;;;;;6.13;1.10;;;9.50;97.00;;;;;;4879520;29;20123;-70
2021/03/14 09:27:18;;;;;;;5.00;1.30;;;9.50;96.40;;;;;;4895687;29;20567;-70
2021/03/14 09:29:44;;;;;;;7.40;1.42;;;9.30;96.30;;;;;;4879267;29;20028;-70
2021/03/14 09:32:18;;;;;;;4.20;1.20;;;9.60;96.20;;;;;;4895338;29;20089;-69
2021/03/14 09:34:44;;;;;;;3.30;0.80;;;10.10;95.70;;;;;;4896187;29;20029;-69
2021/03/14 09:37:10;;;;;;;3.60;0.90;;;10.20;95.00;;;;;;4878420;29;20104;-69
2021/03/14 09:39:36;;;;;;;4.28;1.30;;;10.50;94.80;;;;;;4879258;29;20504;-70
2021/03/14 09:42:03;;;;;;;5.55;1.05;;;10.70;93.40;;;;;;4878416;29;20036;-70
2021/03/14 09:44:28;;;;;;;3.28;0.82;;;10.20;94.00;;;;;;4895825;29;20084;-70
2021/03/14 09:47:02;;;;;;;4.15;0.80;;;10.10;94.00;;;;;;4895662;29;20024;-69
2021/03/14 09:49:27;;;;;;;4.72;1.00;;;9.50;94.50;;;;;;4879134;29;20032;-69
2021/03/14 09:51:56;;;;;;;2.92;1.15;;;9.50;95.20;;;;;;4878916;29;20033;-69
2021/03/14 09:54:23;;;;;;;3.58;1.10;;;9.60;94.50;;;;;;4879482;29;20040;-69
2021/03/14 09:56:55;;;;;;;3.88;1.13;;;9.80;93.90;;;;;;4878572;29;20112;-70
2021/03/14 09:59:25;;;;;;;4.25;1.33;;;10.20;93.80;;;;;;4895800;29;20036;-71
2021/03/14 10:01:52;;;;;;;6.38;1.15;;;10.60;92.60;;;;;;4878448;29;20044;-69
2021/03/14 10:04:19;;;;;;;3.92;1.08;;;10.30;92.70;;;;;;4895203;29;20093;-70
2021/03/14 10:06:46;;;;;;;4.10;0.70;;;10.30;92.70;;;;;;4878836;29;20032;-70
2021/03/14 10:09:26;;;;;;;3.30;0.90;;;10.20;91.90;;;;;;4895487;29;20052;-71
2021/03/14 10:11:53;;;;;;;6.00;1.50;;;10.00;91.60;;;;;;4896156;29;20041;-69
2021/03/14 10:14:20;;;;;;;7.03;1.17;;;9.90;92.00;;;;;;4895307;29;20128;-70
2021/03/14 10:16:50;;;;;;;6.97;0.90;;;9.60;92.50;;;;;;4878908;29;20028;-71
2021/03/14 10:19:17;;;;;;;4.13;1.63;;;9.70;92.60;;;;;;4878643;29;20032;-70
2021/03/14 10:21:46;;;;;;;7.45;1.27;;;9.70;92.30;;;;;;4895524;29;20485;-70
2021/03/14 10:24:24;;;;;;;3.50;0.85;;;9.80;92.30;;;;;;4894867;29;20112;-70
2021/03/14 10:26:58;;;;;;;4.50;1.50;;;9.80;92.00;;;;;;4878718;29;20068;-70
2021/03/14 10:29:36;;;;;;;4.53;1.20;;;9.90;92.40;;;;;;4895383;29;20088;-70
2021/03/14 10:32:04;;;;;;;4.47;1.23;;;9.90;91.70;;;;;;4877953;29;20032;-69
2021/03/14 10:34:29;;;;;;;6.75;0.88;;;9.70;92.20;;;;;;4878454;29;20032;-69
2021/03/14 10:36:56;;;;;;;2.92;0.98;;;9.60;92.30;;;;;;4896040;29;20039;-70
2021/03/14 10:39:29;;;;;;;3.95;1.50;;;9.30;92.90;;;;;;4894930;29;20395;-71
2021/03/14 10:41:56;;;;;;;2.65;1.13;;;9.40;93.30;;;;;;4895257;29;20123;-69
2021/03/14 10:44:24;;;;;;;4.15;0.98;;;9.40;93.50;;;;;;4894794;29;20119;-70
2021/03/14 10:46:52;;;;;;;3.65;0.88;;;9.90;93.40;;;;;;4878833;29;20088;-69
2021/03/14 10:49:24;;;;;;;3.20;0.80;;;10.20;92.80;;;;;;4878211;29;20068;-70
2021/03/14 10:51:54;;;;;;;;;;;10.50;91.80;;;;;;4896067;29;20039;-71
2021/03/14 10:54:23;;;;;;;7.57;1.50;;;10.30;92.30;;;;;;4881096;29;19911;-70
2021/03/14 10:56:50;;;;;;;5.57;2.03;;;10.30;92.60;;;;;;4898922;29;20033;-71
2021/03/14 10:59:29;;;;;;;4.53;1.02;;;10.20;92.90;;;;;;4881532;29;20363;-70
2021/03/14 11:02:19;;;;;;;8.63;1.30;;;9.90;93.10;;;;;;4898756;29;20451;-71
2021/03/14 11:04:57;;;;;;;7.28;1.20;;;10.10;93.50;;;;;;4881717;29;20312;-70
2021/03/14 11:07:26;;;;;;;5.55;1.17;;;10.70;92.10;;;;;;4881247;29;20508;-70
2021/03/14 11:10:08;;;;;;;4.18;1.08;;;10.50;92.50;;;;;;4864649;29;20053;-69
2021/03/14 11:12:36;;;;;;;3.70;1.45;;;10.10;92.90;;;;;;4879668;29;20034;-71
2021/03/14 11:15:03;;;;;;;3.80;0.85;;;9.80;93.50;;;;;;4878841;29;20037;-69
2021/03/14 11:17:32;;;;;;;5.70;1.90;;;9.60;95.20;;;;;;4863116;29;20128;-68
2021/03/14 11:19:57;;;;;;;7.63;1.20;;;9.20;96.50;;;;;;4863048;29;20069;-70
2021/03/14 11:22:24;;;;;;;9.43;1.58;;;9.00;98.00;;;;;;4862487;29;20499;-71
2021/03/14 11:24:50;;;;;;;7.15;2.10;;;9.30;98.10;;;;;;4862712;29;20161;-71
2021/03/14 11:27:17;;;;;;;9.00;1.75;;;9.30;97.00;;;;;;4879251;29;20112;-71
2021/03/14 11:29:43;;;;;;;6.47;1.58;;;9.30;96.90;;;;;;4879775;29;20420;-71
2021/03/14 11:32:13;;;;;;;9.88;1.88;;;9.20;97.00;;;;;;4878924;29;20379;-71
2021/03/14 11:34:43;;;;;;;5.03;1.48;;;8.90;98.40;;;;;;4862799;29;20118;-70
2021/03/14 11:37:10;;;;;;;5.00;1.52;;;8.70;98.00;;;;;;4862286;29;20454;-70
2021/03/14 11:39:36;;;;;;;11.80;1.60;;;8.90;98.40;;;;;;4862497;29;20150;-69
2021/03/14 11:42:04;;;;;;;7.13;1.30;;;9.00;98.20;;;;;;4862475;29;20093;-74
2021/03/14 11:44:29;;;;;;;6.10;1.85;;;9.10;98.20;;;;;;4862643;29;20119;-71
2021/03/14 11:46:55;;;;;;;6.05;1.60;;;8.90;99.10;;;;;;4879511;29;20165;-70
2021/03/14 11:49:21;;;;;;;5.22;1.30;;;8.60;99.30;;;;;;4862190;29;20025;-71
2021/03/14 11:51:47;;;;;;;3.60;1.42;;;8.30;99.90;;;;;;4862477;29;20461;-71
2021/03/14 11:54:16;;;;;;;4.88;1.15;;;8.20;99.90;;;;;;4879210;29;20068;-70
2021/03/14 11:56:49;;;;;;;3.90;1.20;;;8.30;99.90;;;;;;4862308;29;20128;-70
2021/03/14 11:59:15;;;;;;;8.88;1.35;;;8.10;99.90;;;;;;4878486;29;20488;-72
2021/03/14 12:01:41;;;;;;;6.05;1.42;;;7.80;99.90;;;;;;4862437;29;20141;-72
2021/03/14 12:04:08;;;;;;;5.07;2.10;;;8.10;99.90;;;;;;4877080;29;20492;-69
2021/03/14 12:06:34;;;;;;;5.35;1.20;;;8.00;99.90;;;;;;4861730;29;20033;-70
2021/03/14 12:09:00;;;;;;;6.50;2.53;;;8.10;99.90;;;;;;4863745;29;20061;-71
2021/03/14 12:11:26;;;;;;;6.75;2.35;;;8.00;99.90;;;;;;4878575;29;20062;-70
2021/03/14 12:13:52;;;;;;;6.78;1.05;;;8.00;99.90;;;;;;4878859;29;20069;-71
2021/03/14 12:16:18;;;;;;;4.43;1.20;;;8.10;99.90;;;;;;4861660;29;20132;-70
2021/03/14 12:18:44;;;;;;;8.27;1.25;;;8.10;99.90;;;;;;4878713;29;20036;-70
2021/03/14 12:21:10;;;;;;;4.32;1.20;;;8.10;99.90;;;;;;4861533;29;20463;-70
2021/03/14 12:23:36;;;;;;;5.18;1.10;;;8.20;99.90;;;;;;4878707;29;20090;-71
2021/03/14 12:26:05;;;;;;;4.55;1.13;;;8.20;99.70;;;;;;4878870;29;20456;-69
2021/03/14 12:28:31;;;;;;;4.38;1.20;;;8.20;99.90;;;;;;4878886;29;20037;-70
2021/03/14 12:30:58;;;;;;;4.85;1.50;;;8.20;99.90;;;;;;4862093;29;20112;-70
2021/03/14 12:33:24;;;;;;;2.92;1.20;;;8.40;99.90;;;;;;4846122;29;20469;-70
2021/03/14 12:35:50;;;;;;;5.50;2.15;;;8.30;99.90;;;;;;4878250;29;20134;-70
2021/03/14 12:38:19;;;;;;;5.93;1.98;;;8.30;99.90;;;;;;4861144;29;20043;-72
2021/03/14 12:40:46;;;;;;;7.38;1.48;;;8.20;99.90;;;;;;4878529;29;20026;-70
2021/03/14 12:43:21;;;;;;;2.55;1.20;;;8.20;99.90;;;;;;4877772;29;20084;-71
2021/03/14 12:45:49;;;;;;;5.00;1.33;;;8.20;99.90;;;;;;4878473;29;20551;-70
2021/03/14 12:48:18;;;;;;;4.57;1.30;;;8.10;99.90;;;;;;4861100;29;20577;-71
2021/03/14 12:50:44;;;;;;;2.35;2.05;;;8.00;99.90;;;;;;4878311;29;20425;-72
2021/03/14 12:53:10;;;;;;;4.57;1.30;;;8.20;99.90;;;;;;4877429;29;20033;-72
2021/03/14 12:55:35;;;;;;;4.03;1.13;;;8.10;99.90;;;;;;4877723;29;20040;-70
2021/03/14 12:58:01;;;;;;;3.25;0.95;;;8.00;99.90;;;;;;4861477;29;20029;-70
2021/03/14 13:00:27;;;;;;;1.55;0.82;;;8.00;99.90;;;;;;4877659;29;20095;-70
2021/03/14 13:02:53;;;;;;;2.38;1.10;;;8.00;99.90;;;;;;4877978;29;20064;-71
2021/03/14 13:05:18;;;;;;;2.35;1.00;;;8.00;99.90;;;;;;4860953;29;20391;-71
2021/03/14 13:07:46;;;;;;;1.42;1.10;;;8.00;99.90;;;;;;4861198;29;20444;-71